Time;durP1;ratioP1;P1;durP2;ratioP2;P2;SDS_P1;SDS_P2;PMS_P1;PMS_P2;Temp;Humidity;BMP_temperature;BMP_pressure;BME280_temperature;BME280_humidity;BME280_pressure;Samples;Min_cycle;Max_cycle;Signal;HPM_P1;HPM_P2
2022/07/18 00:00:28;;;;;;;1.90;0.90;;;;;;;;;;4915961;29;20047;-43
2022/07/18 00:02:54;;;;;;;5.28;1.05;;;;;;;;;;4898897;29;20052;-42
2022/07/18 00:05:19;;;;;;;4.05;1.00;;;;;;;;;;4916144;29;20059;-39
2022/07/18 00:07:45;;;;;;;2.05;1.10;;;;;;;;;;4915815;29;20175;-41
2022/07/18 00:10:10;;;;;;;6.45;0.80;;;;;;;;;;4915908;29;20088;-40
2022/07/18 00:12:35;;;;;;;3.53;1.10;;;;;;;;;;4915769;29;20032;-40
2022/07/18 00:15:01;;;;;;;2.17;0.90;;;;;;;;;;4915722;29;20028;-39
2022/07/18 00:17:27;;;;;;;4.25;1.20;;;;;;;;;;4915988;29;20028;-39
2022/07/18 00:19:52;;;;;;;3.67;1.20;;;;;;;;;;4915626;29;20376;-40
2022/07/18 00:22:18;;;;;;;0.98;0.90;;;;;;;;;;4918943;29;20040;-41
2022/07/18 00:24:43;;;;;;;3.45;1.10;;;;;;;;;;4919082;29;20033;-40
2022/07/18 00:27:08;;;;;;;7.63;1.20;;;;;;;;;;4919057;29;20039;-40
2022/07/18 00:29:38;;;;;;;2.83;0.95;;;;;;;;;;4919119;29;20116;-40
2022/07/18 00:32:06;;;;;;;3.50;1.10;;;;;;;;;;4918966;29;20081;-39
2022/07/18 00:34:31;;;;;;;9.10;1.15;;;;;;;;;;4918910;29;20032;-39
2022/07/18 00:36:57;;;;;;;1.70;1.00;;;;;;;;;;4918908;29;20220;-40
2022/07/18 00:39:23;;;;;;;3.00;1.15;;;;;;;;;;4919099;29;20115;-40
2022/07/18 00:41:49;;;;;;;5.10;1.17;;;;;;;;;;4919024;29;20024;-43
2022/07/18 00:44:23;;;;;;;2.75;1.00;;;;;;;;;;4918776;29;20071;-39
2022/07/18 00:46:50;;;;;;;3.38;1.00;;;;;;;;;;4918718;29;20046;-42
2022/07/18 00:49:17;;;;;;;5.40;1.10;;;;;;;;;;4918501;29;20511;-39
2022/07/18 00:51:42;;;;;;;4.78;1.15;;;;;;;;;;4918907;29;20060;-39
2022/07/18 00:54:08;;;;;;;3.80;0.82;;;;;;;;;;4918845;29;20406;-40
2022/07/18 00:56:33;;;;;;;4.50;1.00;;;;;;;;;;4918544;29;20366;-40
2022/07/18 00:58:59;;;;;;;5.28;1.10;;;;;;;;;;4918839;29;20115;-43
2022/07/18 01:01:43;;;;;;;2.15;1.00;;;;;;;;;;4918742;29;20031;-40
2022/07/18 01:04:20;;;;;;;2.47;0.90;;;;;;;;;;4918772;29;20028;-40
2022/07/18 01:06:47;;;;;;;1.50;1.00;;;;;;;;;;4918660;29;20020;-40
2022/07/18 01:09:13;;;;;;;3.08;1.00;;;;;;;;;;4918308;29;20115;-39
2022/07/18 01:11:39;;;;;;;2.92;1.30;;;;;;;;;;4918599;29;20441;-40
2022/07/18 01:14:06;;;;;;;4.00;1.00;;;;;;;;;;4918218;29;20028;-39
2022/07/18 01:16:32;;;;;;;1.17;0.93;;;;;;;;;;4918531;29;20028;-39
2022/07/18 01:18:58;;;;;;;1.90;1.17;;;;;;;;;;4918182;29;20034;-40
2022/07/18 01:21:23;;;;;;;2.97;1.30;;;;;;;;;;4918390;29;20103;-39
2022/07/18 01:23:49;;;;;;;3.55;1.40;;;;;;;;;;4918117;29;20039;-39
2022/07/18 01:26:15;;;;;;;1.58;0.90;;;;;;;;;;4918309;29;20377;-40
2022/07/18 01:28:41;;;;;;;1.42;1.00;;;;;;;;;;4918004;29;20032;-39
2022/07/18 01:31:07;;;;;;;1.10;1.00;;;;;;;;;;4917909;29;20040;-40
2022/07/18 01:33:33;;;;;;;8.43;1.63;;;;;;;;;;4917409;29;20035;-39
2022/07/18 01:36:00;;;;;;;2.08;1.13;;;;;;;;;;4917918;29;20495;-39
2022/07/18 01:38:30;;;;;;;2.95;1.15;;;;;;;;;;4918116;29;20387;-44
2022/07/18 01:40:56;;;;;;;3.03;1.08;;;;;;;;;;4918402;29;20040;-40
2022/07/18 01:43:23;;;;;;;3.08;1.20;;;;;;;;;;4917714;29;20515;-39
2022/07/18 01:45:48;;;;;;;2.17;1.10;;;;;;;;;;4917384;29;20060;-41
2022/07/18 01:48:14;;;;;;;1.02;0.90;;;;;;;;;;4917625;29;20036;-39
2022/07/18 01:50:39;;;;;;;4.72;1.10;;;;;;;;;;4917882;29;20115;-39
2022/07/18 01:53:05;;;;;;;12.75;1.98;;;;;;;;;;4917579;29;20541;-40
2022/07/18 01:55:30;;;;;;;1.23;1.00;;;;;;;;;;4917526;29;20032;-40
2022/07/18 01:57:56;;;;;;;1.63;1.25;;;;;;;;;;4917316;29;20028;-40
2022/07/18 02:00:21;;;;;;;2.58;0.90;;;;;;;;;;4917674;29;20025;-39
2022/07/18 02:02:46;;;;;;;3.03;1.15;;;;;;;;;;4917631;29;20028;-41
2022/07/18 02:05:12;;;;;;;1.65;1.10;;;;;;;;;;4917289;29;20032;-39
2022/07/18 02:07:40;;;;;;;3.08;1.15;;;;;;;;;;4917528;29;20028;-39
2022/07/18 02:10:12;;;;;;;2.47;1.10;;;;;;;;;;4917176;29;20101;-40
2022/07/18 02:12:38;;;;;;;2.80;1.17;;;;;;;;;;4917191;29;20063;-40
2022/07/18 02:15:05;;;;;;;4.57;1.20;;;;;;;;;;4917102;29;20036;-41
2022/07/18 02:17:31;;;;;;;3.25;1.30;;;;;;;;;;4917010;29;20535;-39
2022/07/18 02:19:57;;;;;;;3.75;1.20;;;;;;;;;;4915834;29;20036;-40
2022/07/18 02:22:23;;;;;;;3.88;1.40;;;;;;;;;;4917259;29;20171;-39
2022/07/18 02:24:50;;;;;;;5.35;1.35;;;;;;;;;;4917236;29;20389;-40
2022/07/18 02:27:16;;;;;;;5.72;1.40;;;;;;;;;;4917211;29;20453;-41
2022/07/18 02:29:41;;;;;;;3.03;1.42;;;;;;;;;;4917116;29;20078;-41
2022/07/18 02:32:06;;;;;;;4.07;1.20;;;;;;;;;;4916868;29;20032;-40
2022/07/18 02:34:32;;;;;;;2.90;1.20;;;;;;;;;;4916833;29;20068;-40
2022/07/18 02:36:58;;;;;;;4.00;1.08;;;;;;;;;;4917017;29;20028;-41
2022/07/18 02:39:23;;;;;;;1.98;1.42;;;;;;;;;;4917038;29;20499;-40
2022/07/18 02:41:49;;;;;;;3.63;1.30;;;;;;;;;;4916974;29;20520;-40
2022/07/18 02:44:14;;;;;;;4.60;1.35;;;;;;;;;;4916614;29;20036;-41
2022/07/18 02:46:40;;;;;;;2.47;1.27;;;;;;;;;;4916681;29;20366;-41
2022/07/18 02:49:05;;;;;;;2.85;1.38;;;;;;;;;;4916571;29;20535;-42
2022/07/18 02:51:32;;;;;;;4.82;1.00;;;;;;;;;;4916895;29;20071;-39
2022/07/18 02:53:57;;;;;;;2.30;1.05;;;;;;;;;;4916869;29;20084;-40
2022/07/18 02:56:22;;;;;;;9.07;1.35;;;;;;;;;;4916711;29;20029;-39
2022/07/18 02:58:48;;;;;;;1.73;1.58;;;;;;;;;;4916715;29;20039;-39
2022/07/18 03:01:13;;;;;;;1.83;1.15;;;;;;;;;;4916525;29;20103;-41
2022/07/18 03:03:39;;;;;;;4.80;1.33;;;;;;;;;;4916376;29;20410;-40
2022/07/18 03:06:04;;;;;;;4.15;1.20;;;;;;;;;;4916345;29;20032;-44
2022/07/18 03:08:30;;;;;;;3.47;1.17;;;;;;;;;;4916289;29;20028;-40
2022/07/18 03:10:55;;;;;;;3.83;1.40;;;;;;;;;;4916300;29;20032;-41
2022/07/18 03:13:21;;;;;;;6.50;1.27;;;;;;;;;;4915028;29;20123;-40
2022/07/18 03:15:46;;;;;;;5.78;1.35;;;;;;;;;;4916533;29;20100;-40
2022/07/18 03:18:12;;;;;;;1.30;1.00;;;;;;;;;;4916423;29;20408;-40
2022/07/18 03:20:40;;;;;;;1.73;1.42;;;;;;;;;;4916226;29;20493;-42
2022/07/18 03:23:07;;;;;;;2.92;1.23;;;;;;;;;;4916475;29;20028;-39
2022/07/18 03:25:33;;;;;;;2.08;1.08;;;;;;;;;;4916195;29;20028;-40
2022/07/18 03:27:58;;;;;;;1.40;1.10;;;;;;;;;;4916196;29;20032;-40
2022/07/18 03:30:24;;;;;;;3.33;1.17;;;;;;;;;;4915998;29;20480;-42
2022/07/18 03:32:49;;;;;;;2.22;1.23;;;;;;;;;;4916045;29;20461;-41
2022/07/18 03:35:15;;;;;;;1.77;1.30;;;;;;;;;;4916062;29;20040;-40
2022/07/18 03:37:40;;;;;;;4.85;1.30;;;;;;;;;;4916003;29;20127;-40
2022/07/18 03:40:07;;;;;;;1.63;1.02;;;;;;;;;;4916290;29;20115;-40
2022/07/18 03:42:33;;;;;;;0.90;0.90;;;;;;;;;;4916003;29;20032;-39
2022/07/18 03:44:59;;;;;;;1.52;1.35;;;;;;;;;;4915923;29;20052;-41
2022/07/18 03:47:24;;;;;;;4.40;1.13;;;;;;;;;;4915134;29;20039;-40
2022/07/18 03:49:49;;;;;;;2.15;1.40;;;;;;;;;;4916135;29;20032;-42
2022/07/18 03:52:15;;;;;;;10.68;1.88;;;;;;;;;;4915993;29;20492;-42
2022/07/18 03:54:40;;;;;;;4.63;1.73;;;;;;;;;;4916191;29;20080;-42
2022/07/18 03:57:05;;;;;;;5.60;2.03;;;;;;;;;;4919275;29;20445;-42
2022/07/18 03:59:31;;;;;;;6.50;1.10;;;;;;;;;;4919933;29;20035;-41
2022/07/18 04:01:56;;;;;;;7.70;1.50;;;;;;;;;;4919854;29;20170;-41
2022/07/18 04:04:22;;;;;;;7.00;1.40;;;;;;;;;;4919606;29;20437;-40
2022/07/18 04:06:47;;;;;;;10.25;2.50;;;;;;;;;;4919802;29;20122;-41
2022/07/18 04:09:12;;;;;;;8.68;1.40;;;;;;;;;;4919597;29;20127;-40
2022/07/18 04:11:38;;;;;;;3.05;1.50;;;;;;;;;;4919663;29;20381;-43
2022/07/18 04:14:03;;;;;;;10.45;1.80;;;;;;;;;;4919625;29;20032;-41
2022/07/18 04:16:29;;;;;;;3.72;1.48;;;;;;;;;;4919217;29;20020;-41
2022/07/18 04:18:54;;;;;;;6.35;1.67;;;;;;;;;;4919543;29;20032;-41
2022/07/18 04:21:20;;;;;;;2.75;1.45;;;;;;;;;;4919541;29;20032;-41
2022/07/18 04:23:45;;;;;;;7.50;1.30;;;;;;;;;;4919213;29;20075;-40
2022/07/18 04:26:11;;;;;;;3.40;1.40;;;;;;;;;;4919456;29;20032;-40
2022/07/18 04:28:36;;;;;;;6.05;1.60;;;;;;;;;;4919300;29;20231;-46
2022/07/18 04:31:02;;;;;;;8.98;1.65;;;;;;;;;;4918989;29;20076;-43
2022/07/18 04:33:27;;;;;;;2.75;1.30;;;;;;;;;;4919010;29;20036;-40
2022/07/18 04:35:52;;;;;;;6.32;1.20;;;;;;;;;;4919246;29;20032;-41
2022/07/18 04:38:18;;;;;;;3.70;1.33;;;;;;;;;;4917978;29;20051;-40
2022/07/18 04:40:43;;;;;;;8.10;1.60;;;;;;;;;;4917855;29;20034;-43
2022/07/18 04:43:09;;;;;;;3.33;1.35;;;;;;;;;;4919302;29;20619;-41
2022/07/18 04:45:35;;;;;;;2.35;1.35;;;;;;;;;;4918636;29;20507;-41
2022/07/18 04:48:04;;;;;;;3.15;1.50;;;;;;;;;;4918785;29;20040;-40
2022/07/18 04:50:29;;;;;;;3.58;1.40;;;;;;;;;;4918680;29;20036;-45
2022/07/18 04:52:55;;;;;;;5.88;1.30;;;;;;;;;;4918657;29;20028;-41
2022/07/18 04:55:21;;;;;;;4.65;1.42;;;;;;;;;;4918840;29;20066;-40
2022/07/18 04:57:47;;;;;;;7.03;1.60;;;;;;;;;;4918542;29;20059;-46
2022/07/18 05:00:15;;;;;;;4.00;1.30;;;;;;;;;;4918471;29;20032;-42
2022/07/18 05:02:46;;;;;;;4.20;1.40;;;;;;;;;;4918757;29;20083;-41
2022/07/18 05:05:13;;;;;;;6.88;1.60;;;;;;;;;;4917207;29;20058;-43
2022/07/18 05:07:40;;;;;;;3.42;1.40;;;;;;;;;;4917371;29;20051;-42
2022/07/18 05:10:08;;;;;;;2.95;1.40;;;;;;;;;;4916987;29;20127;-44
2022/07/18 05:12:35;;;;;;;1.63;1.30;;;;;;;;;;4918428;29;20036;-40
2022/07/18 05:15:00;;;;;;;2.78;1.55;;;;;;;;;;4918468;29;20037;-45
2022/07/18 05:17:26;;;;;;;6.22;1.58;;;;;;;;;;4918484;29;20107;-44
2022/07/18 05:19:51;;;;;;;6.00;1.55;;;;;;;;;;4918242;29;20036;-49
2022/07/18 05:22:16;;;;;;;2.80;1.35;;;;;;;;;;4918515;29;20032;-43
2022/07/18 05:24:42;;;;;;;2.63;1.50;;;;;;;;;;4918375;29;20055;-43
2022/07/18 05:27:07;;;;;;;9.05;1.40;;;;;;;;;;4918319;29;20091;-48
2022/07/18 05:29:33;;;;;;;6.70;1.95;;;;;;;;;;4917998;29;20040;-44
2022/07/18 05:31:59;;;;;;;3.88;1.50;;;;;;;;;;4918228;29;20028;-43
2022/07/18 05:34:24;;;;;;;5.55;1.50;;;;;;;;;;4916776;29;20032;-45
2022/07/18 05:36:50;;;;;;;6.18;1.38;;;;;;;;;;4917861;29;20032;-48
2022/07/18 05:39:15;;;;;;;6.78;1.40;;;;;;;;;;4917822;29;20025;-44
2022/07/18 05:41:40;;;;;;;4.53;1.52;;;;;;;;;;4917845;29;20059;-45
2022/07/18 05:44:06;;;;;;;7.10;1.50;;;;;;;;;;4918014;29;20028;-43
2022/07/18 05:46:31;;;;;;;4.43;1.65;;;;;;;;;;4917489;29;20050;-44
2022/07/18 05:48:56;;;;;;;6.10;1.60;;;;;;;;;;4917783;29;20071;-45
2022/07/18 05:51:22;;;;;;;5.97;1.50;;;;;;;;;;4917577;29;20070;-43
2022/07/18 05:53:48;;;;;;;2.72;1.38;;;;;;;;;;4917551;29;20090;-45
2022/07/18 05:56:13;;;;;;;4.55;1.75;;;;;;;;;;4917442;29;20059;-44
2022/07/18 05:58:39;;;;;;;10.23;1.35;;;;;;;;;;4917525;29;20081;-46
2022/07/18 06:01:04;;;;;;;2.70;1.38;;;;;;;;;;4917515;29;20055;-45
2022/07/18 06:03:30;;;;;;;6.85;1.50;;;;;;;;;;4917356;29;20056;-44
2022/07/18 06:05:55;;;;;;;4.72;2.13;;;;;;;;;;4917625;29;20024;-44
2022/07/18 06:08:21;;;;;;;7.70;1.50;;;;;;;;;;4917124;29;20067;-43
2022/07/18 06:10:46;;;;;;;8.02;1.83;;;;;;;;;;4917311;29;20032;-45
2022/07/18 06:13:11;;;;;;;6.88;1.60;;;;;;;;;;4917545;29;20362;-43
2022/07/18 06:15:37;;;;;;;3.42;1.48;;;;;;;;;;4917409;29;20024;-45
2022/07/18 06:18:02;;;;;;;8.10;1.50;;;;;;;;;;4916701;29;20496;-47
2022/07/18 06:20:28;;;;;;;7.68;1.30;;;;;;;;;;4917332;29;20040;-42
2022/07/18 06:22:53;;;;;;;4.97;1.65;;;;;;;;;;4917225;29;20028;-41
2022/07/18 06:25:19;;;;;;;2.08;1.25;;;;;;;;;;4916659;29;20182;-46
2022/07/18 06:27:44;;;;;;;8.18;1.95;;;;;;;;;;4916722;29;20032;-44
2022/07/18 06:30:10;;;;;;;6.25;1.40;;;;;;;;;;4916856;29;20544;-41
2022/07/18 06:32:36;;;;;;;3.75;1.50;;;;;;;;;;4917107;29;20024;-48
2022/07/18 06:35:02;;;;;;;2.55;1.40;;;;;;;;;;4917031;29;20024;-41
2022/07/18 06:37:28;;;;;;;1.40;1.20;;;;;;;;;;4916992;29;20055;-42
2022/07/18 06:39:53;;;;;;;5.28;1.30;;;;;;;;;;4917083;29;20115;-44
2022/07/18 06:42:18;;;;;;;4.78;1.65;;;;;;;;;;4916616;29;20028;-42
2022/07/18 06:44:44;;;;;;;8.60;1.58;;;;;;;;;;4916520;29;20067;-43
2022/07/18 06:47:09;;;;;;;5.80;1.38;;;;;;;;;;4916650;29;20028;-44
2022/07/18 06:49:35;;;;;;;2.47;1.10;;;;;;;;;;4916606;29;20299;-47
2022/07/18 06:52:00;;;;;;;4.63;1.38;;;;;;;;;;4916880;29;20028;-45
2022/07/18 06:54:27;;;;;;;3.75;1.10;;;;;;;;;;4916501;29;20063;-44
2022/07/18 06:56:54;;;;;;;7.53;1.27;;;;;;;;;;4916470;29;20035;-44
2022/07/18 06:59:21;;;;;;;1.38;1.10;;;;;;;;;;4916715;29;20036;-47
2022/07/18 07:01:46;;;;;;;2.60;1.38;;;;;;;;;;4915192;29;20020;-49
2022/07/18 07:04:12;;;;;;;3.65;1.10;;;;;;;;;;4916652;29;20535;-46
2022/07/18 07:06:38;;;;;;;4.05;1.70;;;;;;;;;;4916393;29;20107;-42
2022/07/18 07:09:04;;;;;;;5.72;1.88;;;;;;;;;;4916251;29;20028;-47
2022/07/18 07:11:30;;;;;;;5.63;1.25;;;;;;;;;;4916643;29;20030;-41
2022/07/18 07:13:55;;;;;;;5.57;1.38;;;;;;;;;;4916339;29;20480;-46
2022/07/18 07:16:22;;;;;;;2.15;1.40;;;;;;;;;;4916227;29;20032;-43
2022/07/18 07:18:47;;;;;;;5.22;1.27;;;;;;;;;;4916551;29;20036;-43
2022/07/18 07:21:13;;;;;;;4.50;1.60;;;;;;;;;;4916510;29;20491;-43
2022/07/18 07:23:40;;;;;;;4.93;1.88;;;;;;;;;;4916471;29;20059;-44
2022/07/18 07:26:06;;;;;;;3.00;1.40;;;;;;;;;;4916262;29;20388;-42
2022/07/18 07:28:31;;;;;;;2.42;1.60;;;;;;;;;;4916279;29;20024;-47
2022/07/18 07:30:57;;;;;;;3.75;1.40;;;;;;;;;;4917628;29;20539;-44
2022/07/18 07:33:22;;;;;;;2.97;1.50;;;;;;;;;;4920334;29;20028;-44
2022/07/18 07:35:48;;;;;;;7.80;1.90;;;;;;;;;;4920240;29;20469;-49
2022/07/18 07:38:18;;;;;;;5.57;1.38;;;;;;;;;;4919978;29;20033;-44
2022/07/18 07:40:43;;;;;;;6.82;1.65;;;;;;;;;;4920270;29;20036;-46
2022/07/18 07:43:11;;;;;;;2.92;1.30;;;;;;;;;;4920022;29;20380;-47
2022/07/18 07:45:37;;;;;;;2.50;1.00;;;;;;;;;;4919665;29;20056;-44
2022/07/18 07:48:03;;;;;;;1.50;1.17;;;;;;;;;;4919374;29;20039;-43
2022/07/18 07:50:29;;;;;;;1.85;1.20;;;;;;;;;;4919189;29;20136;-48
2022/07/18 07:52:55;;;;;;;1.63;1.05;;;;;;;;;;4919693;29;20072;-44
2022/07/18 07:55:21;;;;;;;3.40;1.35;;;;;;;;;;4919058;29;20417;-44
2022/07/18 07:57:46;;;;;;;2.45;1.40;;;;;;;;;;4917589;29;20044;-47
2022/07/18 08:00:12;;;;;;;3.45;1.65;;;;;;;;;;4917736;29;20043;-43
2022/07/18 08:02:48;;;;;;;3.00;1.20;;;;;;;;;;4918215;29;20024;-46
2022/07/18 08:05:14;;;;;;;3.72;1.20;;;;;;;;;;4919513;29;20035;-45
2022/07/18 08:07:39;;;;;;;1.70;1.30;;;;;;;;;;4919400;29;20024;-43
2022/07/18 08:10:05;;;;;;;3.47;1.20;;;;;;;;;;4918719;29;20046;-42
2022/07/18 08:12:30;;;;;;;1.30;0.90;;;;;;;;;;4917755;29;20032;-42
2022/07/18 08:14:56;;;;;;;1.35;1.10;;;;;;;;;;4918808;29;20103;-44
2022/07/18 08:17:21;;;;;;;2.38;1.05;;;;;;;;;;4917680;29;20055;-45
2022/07/18 08:19:47;;;;;;;1.95;1.10;;;;;;;;;;4919182;29;20362;-46
2022/07/18 08:22:12;;;;;;;2.35;0.93;;;;;;;;;;4918340;29;20671;-44
2022/07/18 08:24:37;;;;;;;5.80;1.55;;;;;;;;;;4918680;29;20040;-42
2022/07/18 08:27:03;;;;;;;2.72;1.08;;;;;;;;;;4918321;29;20029;-46
2022/07/18 08:29:28;;;;;;;1.35;0.90;;;;;;;;;;4918090;29;20465;-44
2022/07/18 08:31:54;;;;;;;0.93;0.88;;;;;;;;;;4918793;29;20377;-47
2022/07/18 08:34:19;;;;;;;2.83;0.90;;;;;;;;;;4919114;29;20484;-47
2022/07/18 08:36:44;;;;;;;1.65;0.93;;;;;;;;;;4918059;29;20623;-42
2022/07/18 08:39:10;;;;;;;2.58;1.05;;;;;;;;;;4918737;29;20028;-46
2022/07/18 08:41:36;;;;;;;1.92;0.90;;;;;;;;;;4916458;29;20032;-45
2022/07/18 08:44:02;;;;;;;1.48;0.90;;;;;;;;;;4915104;29;20035;-43
2022/07/18 08:46:28;;;;;;;1.88;1.02;;;;;;;;;;4917849;29;20036;-43
2022/07/18 08:48:55;;;;;;;6.15;1.58;;;;;;;;;;4918309;29;20028;-48
2022/07/18 08:51:22;;;;;;;1.85;1.05;;;;;;;;;;4918597;29;20032;-42
2022/07/18 08:53:48;;;;;;;1.17;1.02;;;;;;;;;;4918272;29;20520;-44
2022/07/18 08:56:13;;;;;;;1.63;0.88;;;;;;;;;;4918389;29;20032;-47
2022/07/18 08:58:39;;;;;;;4.05;1.20;;;;;;;;;;4918692;29;20059;-44
2022/07/18 09:01:05;;;;;;;3.17;1.10;;;;;;;;;;4918380;29;20357;-44
2022/07/18 09:03:30;;;;;;;3.10;1.02;;;;;;;;;;4918609;29;20028;-40
2022/07/18 09:06:09;;;;;;;2.75;0.98;;;;;;;;;;4918702;29;20491;-45
2022/07/18 09:08:36;;;;;;;1.65;1.15;;;;;;;;;;4918262;29;20032;-44
2022/07/18 09:11:04;;;;;;;2.70;1.20;;;;;;;;;;4918488;29;20029;-46
2022/07/18 09:13:36;;;;;;;8.17;1.90;;;;;;;;;;4918116;29;20071;-46
2022/07/18 09:16:11;;;;;;;5.60;1.35;;;;;;;;;;4918610;29;20028;-45
2022/07/18 09:18:44;;;;;;;2.67;1.17;;;;;;;;;;4918467;29;20028;-44
2022/07/18 09:21:19;;;;;;;1.90;1.30;;;;;;;;;;4917488;29;20032;-41
2022/07/18 09:23:48;;;;;;;3.25;1.52;;;;;;;;;;4917951;29;20056;-45
2022/07/18 09:26:36;;;;;;;2.33;1.10;;;;;;;;;;4918287;29;20035;-45
2022/07/18 09:29:03;;;;;;;2.20;1.30;;;;;;;;;;4917825;29;20036;-45
2022/07/18 09:31:29;;;;;;;1.63;1.40;;;;;;;;;;4918213;29;20090;-44
2022/07/18 09:33:59;;;;;;;1.70;1.15;;;;;;;;;;4918170;29;20024;-45
2022/07/18 09:36:26;;;;;;;6.28;1.15;;;;;;;;;;4917680;29;20068;-46
2022/07/18 09:38:52;;;;;;;3.50;1.15;;;;;;;;;;4917698;29;20098;-46
2022/07/18 09:41:25;;;;;;;1.30;1.20;;;;;;;;;;4917681;29;20118;-46
2022/07/18 09:43:51;;;;;;;2.75;1.20;;;;;;;;;;4917573;29;20469;-43
2022/07/18 09:46:16;;;;;;;1.30;1.20;;;;;;;;;;4917349;29;20052;-43
2022/07/18 09:48:42;;;;;;;1.67;1.38;;;;;;;;;;4917360;29;20127;-45
2022/07/18 09:51:07;;;;;;;2.88;1.45;;;;;;;;;;4916185;29;20032;-43
2022/07/18 09:53:38;;;;;;;5.28;1.73;;;;;;;;;;4916605;29;20587;-48
2022/07/18 09:56:22;;;;;;;1.70;1.20;;;;;;;;;;4916335;29;20020;-44
2022/07/18 09:58:53;;;;;;;2.28;1.15;;;;;;;;;;4917024;29;20040;-47
2022/07/18 10:01:19;;;;;;;4.35;1.40;;;;;;;;;;4917016;29;20038;-46
2022/07/18 10:03:45;;;;;;;1.75;1.30;;;;;;;;;;4915496;29;20040;-48
2022/07/18 10:06:11;;;;;;;1.70;1.30;;;;;;;;;;4917479;29;20039;-43
2022/07/18 10:08:37;;;;;;;1.90;1.30;;;;;;;;;;4916228;29;20036;-46
2022/07/18 10:11:05;;;;;;;1.67;1.30;;;;;;;;;;4915645;29;20027;-40
2022/07/18 10:13:32;;;;;;;2.70;1.30;;;;;;;;;;4915751;29;20024;-46
2022/07/18 10:15:58;;;;;;;7.78;1.50;;;;;;;;;;4915408;29;20040;-43
2022/07/18 10:18:28;;;;;;;2.25;1.30;;;;;;;;;;4915893;29;20099;-44
2022/07/18 10:20:59;;;;;;;2.58;1.20;;;;;;;;;;4915654;29;20028;-46
2022/07/18 10:23:27;;;;;;;2.70;1.23;;;;;;;;;;4915472;29;20028;-45
2022/07/18 10:26:10;;;;;;;2.35;1.33;;;;;;;;;;4915272;29;20485;-44
2022/07/18 10:28:56;;;;;;;1.30;1.05;;;;;;;;;;4915629;29;20123;-43
2022/07/18 10:31:25;;;;;;;3.28;1.23;;;;;;;;;;4914586;29;20572;-44
2022/07/18 10:33:52;;;;;;;1.30;1.00;;;;;;;;;;4915647;29;20121;-47
2022/07/18 10:36:19;;;;;;;2.10;1.00;;;;;;;;;;4915406;29;20039;-44
2022/07/18 10:39:05;;;;;;;1.77;0.93;;;;;;;;;;4915543;29;20027;-43
2022/07/18 10:41:30;;;;;;;4.18;1.25;;;;;;;;;;4916725;29;20492;-45
2022/07/18 10:43:55;;;;;;;1.95;0.98;;;;;;;;;;4916666;29;20059;-44
2022/07/18 10:46:21;;;;;;;2.58;1.10;;;;;;;;;;4916444;29;20044;-44
2022/07/18 10:48:48;;;;;;;1.45;1.10;;;;;;;;;;4916770;29;20385;-43
2022/07/18 10:51:16;;;;;;;2.35;1.20;;;;;;;;;;4914895;29;20475;-40
2022/07/18 10:53:53;;;;;;;1.05;1.00;;;;;;;;;;4916547;29;20076;-40
2022/07/18 10:56:39;;;;;;;1.25;1.15;;;;;;;;;;4916183;29;20030;-42
2022/07/18 10:59:19;;;;;;;4.88;1.27;;;;;;;;;;4916228;29;20067;-46
2022/07/18 11:01:55;;;;;;;3.05;1.35;;;;;;;;;;4915293;29;20060;-43
2022/07/18 11:04:26;;;;;;;1.52;0.98;;;;;;;;;;4915034;29;20043;-41
2022/07/18 11:06:56;;;;;;;1.30;1.08;;;;;;;;;;4914986;29;20036;-47
2022/07/18 11:09:51;;;;;;;1.70;0.98;;;;;;;;;;4914600;29;20032;-45
2022/07/18 11:12:29;;;;;;;2.53;1.10;;;;;;;;;;4902196;29;20097;-46
2022/07/18 11:15:13;;;;;;;0.80;0.80;;;;;;;;;;4914227;29;20040;-44
2022/07/18 11:17:51;;;;;;;2.28;0.98;;;;;;;;;;4914700;29;20286;-45
2022/07/18 11:20:36;;;;;;;3.97;1.05;;;;;;;;;;4914170;29;20569;-45
2022/07/18 11:23:13;;;;;;;3.13;0.90;;;;;;;;;;4912741;29;20039;-46
2022/07/18 11:25:39;;;;;;;1.60;0.90;;;;;;;;;;4912209;29;20035;-45
2022/07/18 11:28:08;;;;;;;0.80;0.80;;;;;;;;;;4914156;29;20028;-48
2022/07/18 11:30:33;;;;;;;;;;;;;;;;;;4914850;29;20036;-44
2022/07/18 11:32:59;;;;;;;0.98;0.90;;;;;;;;;;4914489;29;19926;-43
2022/07/18 11:35:25;;;;;;;1.73;1.10;;;;;;;;;;4914379;29;20535;-44
2022/07/18 11:37:52;;;;;;;2.40;0.95;;;;;;;;;;4914586;29;20381;-47
2022/07/18 11:40:19;;;;;;;1.90;1.00;;;;;;;;;;4913931;29;20528;-42
2022/07/18 11:42:44;;;;;;;3.33;1.23;;;;;;;;;;4913614;29;20389;-44
2022/07/18 11:45:12;;;;;;;2.35;1.10;;;;;;;;;;4913767;29;20055;-49
2022/07/18 11:47:40;;;;;;;1.20;1.00;;;;;;;;;;4913624;29;20032;-44
2022/07/18 11:50:06;;;;;;;1.08;0.80;;;;;;;;;;4914644;29;20425;-45
2022/07/18 11:52:32;;;;;;;1.50;0.80;;;;;;;;;;4914380;29;20765;-43
2022/07/18 11:55:00;;;;;;;3.15;0.90;;;;;;;;;;4914369;29;20040;-43
2022/07/18 11:57:31;;;;;;;2.75;1.20;;;;;;;;;;4913654;29;20024;-41
2022/07/18 11:59:59;;;;;;;2.58;1.13;;;;;;;;;;4913682;29;20040;-45
2022/07/18 12:03:02;;;;;;;1.65;1.10;;;;;;;;;;4914047;29;20382;-45
2022/07/18 12:05:39;;;;;;;1.90;0.90;;;;;;;;;;4911311;29;20051;-47
2022/07/18 12:08:35;;;;;;;1.30;1.20;;;;;;;;;;4912642;29;20041;-40
2022/07/18 12:11:19;;;;;;;0.90;0.90;;;;;;;;;;4913545;29;20032;-43
2022/07/18 12:13:56;;;;;;;2.88;0.90;;;;;;;;;;4914058;29;20051;-43
2022/07/18 12:16:34;;;;;;;0.93;0.90;;;;;;;;;;4913756;29;20104;-44
2022/07/18 12:19:08;;;;;;;4.47;1.00;;;;;;;;;;4917462;29;20040;-46
2022/07/18 12:21:54;;;;;;;2.63;0.80;;;;;;;;;;4917313;29;20103;-44
2022/07/18 12:24:25;;;;;;;2.03;1.00;;;;;;;;;;4917412;29;20071;-41
2022/07/18 12:27:13;;;;;;;1.48;1.05;;;;;;;;;;4916410;29;20055;-45
2022/07/18 12:29:59;;;;;;;1.30;1.20;;;;;;;;;;4917310;29;20567;-46
2022/07/18 12:32:26;;;;;;;1.10;0.93;;;;;;;;;;4917776;29;20040;-42
2022/07/18 12:35:04;;;;;;;1.63;1.02;;;;;;;;;;4917421;29;20473;-45
2022/07/18 12:37:29;;;;;;;1.85;1.10;;;;;;;;;;4917466;29;20059;-45
2022/07/18 12:40:15;;;;;;;1.10;1.00;;;;;;;;;;4916034;29;20491;-45
2022/07/18 12:42:42;;;;;;;1.92;0.90;;;;;;;;;;4916756;29;20072;-43
2022/07/18 12:45:09;;;;;;;1.80;0.88;;;;;;;;;;4916855;29;20048;-41
2022/07/18 12:47:35;;;;;;;3.70;1.10;;;;;;;;;;4917156;29;20079;-38
2022/07/18 12:50:01;;;;;;;2.25;1.05;;;;;;;;;;4916755;29;20039;-44
2022/07/18 12:52:27;;;;;;;3.67;1.30;;;;;;;;;;4916115;29;20397;-41
2022/07/18 12:54:54;;;;;;;1.63;1.30;;;;;;;;;;4916201;29;20032;-40
2022/07/18 12:57:20;;;;;;;1.20;1.10;;;;;;;;;;4916552;29;20036;-41
2022/07/18 12:59:46;;;;;;;0.95;0.95;;;;;;;;;;4916800;29;20523;-41
2022/07/18 13:02:12;;;;;;;7.32;3.20;;;;;;;;;;4916405;29;20041;-39
2022/07/18 13:04:38;;;;;;;3.75;1.27;;;;;;;;;;4916427;29;20028;-41
2022/07/18 13:07:03;;;;;;;1.35;1.25;;;;;;;;;;4916433;29;20511;-42
2022/07/18 13:09:29;;;;;;;1.30;1.20;;;;;;;;;;4916799;29;20044;-42
2022/07/18 13:11:54;;;;;;;2.15;1.25;;;;;;;;;;4916855;29;20052;-40
2022/07/18 13:14:20;;;;;;;5.53;1.20;;;;;;;;;;4916675;29;20044;-41
2022/07/18 13:16:47;;;;;;;1.45;1.17;;;;;;;;;;4916644;29;20035;-44
2022/07/18 13:19:14;;;;;;;1.40;1.17;;;;;;;;;;4916315;29;20050;-41
2022/07/18 13:21:41;;;;;;;3.78;1.92;;;;;;;;;;4916351;29;20071;-41
2022/07/18 13:24:07;;;;;;;2.97;2.13;;;;;;;;;;4914363;29;20067;-41
2022/07/18 13:26:33;;;;;;;4.40;1.40;;;;;;;;;;4912781;29;20444;-41
2022/07/18 13:28:58;;;;;;;1.95;1.23;;;;;;;;;;4915147;29;20040;-41
2022/07/18 13:31:26;;;;;;;3.72;2.00;;;;;;;;;;4916545;29;20040;-43
2022/07/18 13:33:51;;;;;;;2.28;1.70;;;;;;;;;;4916706;29;20058;-42
2022/07/18 13:36:18;;;;;;;3.45;1.75;;;;;;;;;;4916476;29;20693;-44
2022/07/18 13:38:44;;;;;;;2.08;1.67;;;;;;;;;;4916396;29;20021;-41
2022/07/18 13:41:09;;;;;;;7.50;2.10;;;;;;;;;;4916316;29;20055;-41
2022/07/18 13:43:39;;;;;;;8.38;1.90;;;;;;;;;;4916503;29;20494;-42
2022/07/18 13:46:10;;;;;;;2.28;2.00;;;;;;;;;;4915930;29;20048;-41
2022/07/18 13:48:37;;;;;;;4.90;2.22;;;;;;;;;;4916322;29;20119;-42
2022/07/18 13:51:03;;;;;;;2.88;2.10;;;;;;;;;;4915920;29;20020;-40
2022/07/18 13:53:29;;;;;;;7.13;2.17;;;;;;;;;;4916316;29;20028;-40
2022/07/18 13:55:55;;;;;;;3.95;2.05;;;;;;;;;;4916037;29;20388;-43
2022/07/18 13:58:20;;;;;;;4.20;1.90;;;;;;;;;;4915988;29;20032;-40
2022/07/18 14:00:46;;;;;;;5.55;2.17;;;;;;;;;;4916295;29;20059;-40
2022/07/18 14:03:11;;;;;;;4.35;2.13;;;;;;;;;;4915941;29;20087;-39
2022/07/18 14:05:39;;;;;;;1.90;1.73;;;;;;;;;;4916025;29;20063;-42
2022/07/18 14:08:06;;;;;;;8.98;2.22;;;;;;;;;;4915789;29;20039;-40
2022/07/18 14:10:31;;;;;;;2.20;1.80;;;;;;;;;;4915676;29;20484;-42
2022/07/18 14:12:57;;;;;;;6.25;1.98;;;;;;;;;;4915768;29;20036;-39
2022/07/18 14:15:23;;;;;;;2.83;1.70;;;;;;;;;;4915965;29;20091;-41
2022/07/18 14:17:48;;;;;;;6.22;2.40;;;;;;;;;;4915681;29;20047;-42
2022/07/18 14:20:16;;;;;;;5.22;1.90;;;;;;;;;;4915578;29;20024;-40
2022/07/18 14:22:42;;;;;;;1.75;1.65;;;;;;;;;;4915666;29;20036;-41
2022/07/18 14:25:10;;;;;;;1.80;1.70;;;;;;;;;;4915686;29;20095;-45
2022/07/18 14:27:38;;;;;;;4.90;2.15;;;;;;;;;;4915641;29;20016;-46
2022/07/18 14:30:05;;;;;;;7.60;2.10;;;;;;;;;;4915537;29;20060;-42
2022/07/18 14:32:31;;;;;;;4.93;1.70;;;;;;;;;;4915291;29;20520;-44
2022/07/18 14:34:56;;;;;;;7.82;2.20;;;;;;;;;;4915217;29;20036;-41
2022/07/18 14:37:22;;;;;;;9.65;2.50;;;;;;;;;;4915726;29;20028;-46
2022/07/18 14:39:47;;;;;;;5.68;2.50;;;;;;;;;;4914824;29;20020;-43
2022/07/18 14:42:13;;;;;;;4.95;2.10;;;;;;;;;;4915413;29;20126;-44
2022/07/18 14:44:38;;;;;;;9.43;2.33;;;;;;;;;;4914942;29;20416;-45